createdAt,value
2019-05-23T06:18:52.768Z,101776.36
2019-05-23T06:21:24.161Z,101779.64
2019-05-23T06:23:52.659Z,101764.19
2019-05-23T06:26:22.006Z,101779.10
2019-05-23T06:28:50.606Z,101770.62
2019-05-23T06:31:21.485Z,101780.33
2019-05-23T06:33:50.759Z,101784.41
2019-05-23T06:36:19.261Z,101779.06
2019-05-23T06:38:48.078Z,101780.66
2019-05-23T06:41:18.315Z,101781.95
2019-05-23T06:43:46.899Z,101780.83
2019-05-23T06:46:15.728Z,101775.56
2019-05-23T06:48:45.805Z,101780.17
2019-05-23T06:51:13.914Z,101780.72
2019-05-23T06:53:42.365Z,101780.78
2019-05-23T06:56:13.402Z,101780.59
2019-05-23T06:58:42.584Z,101778.08
2019-05-23T07:01:10.990Z,101778.89
2019-05-23T07:03:42.897Z,101777.83
2019-05-23T07:06:11.851Z,101778.45
2019-05-23T07:08:40.268Z,101776.28
2019-05-23T07:11:08.721Z,101785.06
2019-05-23T07:13:37.730Z,101778.16
2019-05-23T07:16:06.630Z,101774.84
2019-05-23T07:18:35.707Z,101777.48
2019-05-23T07:21:05.049Z,101772.17
2019-05-23T07:23:33.560Z,101785.25
2019-05-23T07:26:02.570Z,101775.31
2019-05-23T07:28:31.376Z,101784.22
2019-05-23T07:30:59.884Z,101781.38
2019-05-23T07:33:28.319Z,101781.48
2019-05-23T07:35:56.759Z,101787.46
2019-05-23T07:38:25.198Z,101787.91
2019-05-23T07:40:54.635Z,101785.94
2019-05-23T07:43:23.128Z,101784.12
2019-05-23T07:45:53.194Z,101785.66
2019-05-23T07:48:21.645Z,101780.39
2019-05-23T07:50:50.078Z,101783.34
2019-05-23T07:53:23.142Z,101780.64
2019-05-23T07:55:53.214Z,101778.94
2019-05-23T07:58:21.652Z,101782.92
2019-05-23T08:00:57.976Z,101780.69
2019-05-23T08:03:30.107Z,101783.80
2019-05-23T08:05:58.551Z,101777.16
2019-05-23T08:08:27.148Z,101772.22
2019-05-23T08:10:55.592Z,101779.36
2019-05-23T08:13:24.866Z,101781.66
2019-05-23T08:15:53.265Z,101773.91
2019-05-23T08:18:21.701Z,101777.50
2019-05-23T08:20:50.192Z,101778.58
2019-05-23T08:23:19.032Z,101772.89
2019-05-23T08:25:47.837Z,101740.97
2019-05-23T08:28:16.330Z,101776.52
2019-05-23T08:30:44.891Z,101771.00
2019-05-23T08:33:14.797Z,101772.73
2019-05-23T08:35:44.490Z,101774.09
2019-05-23T08:38:14.118Z,101771.73
2019-05-23T08:40:43.281Z,101768.67
2019-05-23T08:43:11.770Z,101770.20
2019-05-23T08:45:40.191Z,101766.64
2019-05-23T08:48:08.887Z,101762.74
2019-05-23T08:50:37.592Z,101766.13
2019-05-23T08:53:06.023Z,101767.11
2019-05-23T08:55:34.445Z,101765.92
2019-05-23T08:58:03.957Z,101765.20
2019-05-23T09:00:34.486Z,101759.27
2019-05-23T09:03:03.678Z,101759.89
2019-05-23T09:05:36.784Z,101757.12
2019-05-23T09:08:06.048Z,101758.91
2019-05-23T09:10:36.296Z,101769.70
2019-05-23T09:13:04.940Z,101759.79
2019-05-23T09:15:33.387Z,101763.80
2019-05-23T09:18:01.938Z,101760.40
2019-05-23T09:20:31.012Z,101753.08
2019-05-23T09:22:59.448Z,101756.41
2019-05-23T09:25:27.888Z,101753.11
2019-05-23T09:27:57.051Z,101754.16
2019-05-23T09:30:26.893Z,101757.67
2019-05-23T09:32:55.362Z,101748.39
2019-05-23T09:35:24.251Z,101753.44
2019-05-23T09:40:20.390Z,101752.59
2019-05-23T09:42:48.896Z,101750.92
2019-05-23T09:45:18.604Z,101748.13
2019-05-23T09:47:51.090Z,101751.02
2019-05-23T09:50:18.824Z,101757.03
2019-05-23T09:52:47.355Z,101741.44
2019-05-23T09:55:17.322Z,101748.56
2019-05-23T09:57:45.290Z,101745.95
2019-05-23T10:00:17.228Z,101745.30
2019-05-23T10:02:45.630Z,101739.30
2019-05-23T10:05:14.712Z,101729.77
2019-05-23T10:07:43.166Z,101738.97
2019-05-23T10:10:13.216Z,101733.25
2019-05-23T10:12:41.733Z,101735.73
2019-05-23T10:15:12.960Z,101730.42
2019-05-23T10:17:41.494Z,101741.95
2019-05-23T10:20:10.560Z,101742.91
2019-05-23T10:22:39.068Z,101741.44
2019-05-23T10:25:08.546Z,101734.58
2019-05-23T10:27:37.150Z,101720.64
2019-05-23T10:30:12.144Z,101730.80
2019-05-23T10:32:40.577Z,101727.41
2019-05-23T10:35:10.269Z,101733.70
2019-05-23T10:37:38.770Z,101726.88
2019-05-23T10:40:07.941Z,101722.23
2019-05-23T10:42:38.074Z,101718.69
2019-05-23T10:45:08.751Z,101725.78
2019-05-23T10:47:37.357Z,101718.13
2019-05-23T10:50:09.766Z,101712.59
2019-05-23T10:52:37.956Z,101722.34
2019-05-23T10:55:07.350Z,101716.94
2019-05-23T10:57:35.876Z,101705.93
2019-05-23T11:00:07.381Z,101703.14
2019-05-23T11:02:36.850Z,101705.42
2019-05-23T11:05:13.674Z,101701.64
2019-05-23T11:07:43.975Z,101618.09
2019-05-23T11:10:13.030Z,101711.89
2019-05-23T11:12:41.931Z,101701.91
2019-05-23T11:15:10.541Z,101700.30
2019-05-23T11:17:40.300Z,101702.67
2019-05-23T11:20:10.881Z,101700.05
2019-05-23T11:22:39.883Z,101696.27
2019-05-23T11:25:10.816Z,101685.64
2019-05-23T11:27:39.877Z,101689.96
2019-05-23T11:30:26.818Z,101694.61
2019-05-23T11:32:55.274Z,101686.33
2019-05-23T11:35:24.663Z,101687.36
2019-05-23T11:37:53.094Z,101672.57
2019-05-23T11:40:22.694Z,101665.00
2019-05-23T11:42:52.706Z,101669.62
2019-05-23T11:45:23.953Z,101664.37
2019-05-23T11:47:52.427Z,101665.95
2019-05-23T11:50:20.896Z,101665.86
2019-05-23T11:52:49.809Z,101661.73
2019-05-23T11:55:18.803Z,101665.39
2019-05-23T11:57:47.229Z,101665.95
2019-05-23T12:00:18.191Z,101659.76
2019-05-23T12:02:48.461Z,101662.81
2019-05-23T12:05:18.735Z,101656.42
2019-05-23T12:07:47.332Z,101662.11
2019-05-23T12:10:17.175Z,101659.89
2019-05-23T12:12:45.672Z,101653.00
2019-05-23T12:15:17.403Z,101646.17
2019-05-23T12:17:45.809Z,101647.83
2019-05-23T12:20:15.751Z,101649.97
2019-05-23T12:22:44.884Z,101638.81
2019-05-23T12:25:21.956Z,101642.52
2019-05-23T12:27:44.281Z,101552.02
2019-05-23T12:30:15.361Z,101625.99
2019-05-23T12:32:43.852Z,101633.69
2019-05-23T12:35:12.740Z,101629.69
2019-05-23T12:37:41.255Z,101626.23
2019-05-23T12:40:12.260Z,101626.48
2019-05-23T12:42:40.686Z,101624.53
2019-05-23T12:45:11.016Z,101621.97
2019-05-23T12:47:50.240Z,101620.55
2019-05-23T12:50:25.953Z,101615.56
2019-05-23T12:52:54.383Z,101607.70
2019-05-23T12:55:22.937Z,101618.01
2019-05-23T12:57:51.421Z,101606.95
2019-05-23T13:00:22.321Z,101605.81
2019-05-23T13:02:50.763Z,101598.14
2019-05-23T13:05:20.103Z,101598.12
2019-05-23T13:07:48.581Z,101588.40
2019-05-23T13:10:16.971Z,101594.36
2019-05-23T13:12:45.415Z,101590.42
2019-05-23T13:15:14.001Z,101586.11
2019-05-23T13:17:42.416Z,101596.69
2019-05-23T13:20:11.864Z,101589.59
2019-05-23T13:22:40.292Z,101590.34
2019-05-23T13:25:09.038Z,101592.95
2019-05-23T13:27:37.840Z,101588.94
2019-05-23T13:30:08.350Z,101587.75
2019-05-23T13:32:37.200Z,101588.98
2019-05-23T13:35:07.829Z,101591.27
2019-05-23T13:37:52.314Z,101590.57
2019-05-23T13:40:08.723Z,101592.11
2019-05-23T13:42:37.622Z,101586.86
2019-05-23T13:45:08.850Z,101585.72
2019-05-23T13:47:37.295Z,101585.23
2019-05-23T13:50:08.914Z,101573.84
2019-05-23T13:52:37.891Z,101563.48
2019-05-23T13:55:06.905Z,101576.62
2019-05-23T13:57:36.535Z,101566.91
2019-05-23T14:00:08.674Z,101566.51
2019-05-23T14:02:37.971Z,101566.21
2019-05-23T14:05:07.837Z,101560.94
2019-05-23T14:07:36.770Z,101562.73
2019-05-23T14:10:10.416Z,101559.66
2019-05-23T14:12:39.495Z,101550.02
2019-05-23T14:15:10.227Z,101555.16
2019-05-23T14:17:45.922Z,101556.08
2019-05-23T14:20:15.408Z,101547.38
2019-05-23T14:22:46.030Z,101551.70
2019-05-23T14:25:15.144Z,101551.19
2019-05-23T14:27:47.803Z,101542.72
2019-05-23T14:30:30.308Z,101550.52
2019-05-23T14:33:03.734Z,101537.48
2019-05-23T14:35:34.099Z,101544.30
2019-05-23T14:38:04.161Z,101545.77
2019-05-23T14:40:32.693Z,101542.32
2019-05-23T14:43:05.494Z,101540.64
2019-05-23T14:45:35.546Z,101532.37
2019-05-23T14:48:23.027Z,101535.32
2019-05-23T14:50:53.768Z,101537.57
2019-05-23T14:53:26.548Z,101533.94
2019-05-23T14:55:55.032Z,101526.36
2019-05-23T14:58:23.538Z,101515.45
2019-05-23T15:00:52.799Z,101520.33
2019-05-23T15:03:20.504Z,101517.20
2019-05-23T15:05:49.170Z,101518.12
2019-05-23T15:08:17.917Z,101518.28
2019-05-23T15:10:46.377Z,101513.45
2019-05-23T15:13:14.815Z,101514.30
2019-05-23T15:15:43.331Z,101509.05
2019-05-23T15:18:11.845Z,101508.86
2019-05-23T15:20:40.354Z,101505.46
2019-05-23T15:23:08.893Z,101507.75
2019-05-23T15:25:37.402Z,101510.32
2019-05-23T15:28:05.912Z,101511.85
2019-05-23T15:30:34.338Z,101500.32
2019-05-23T15:33:03.031Z,101493.31
2019-05-23T15:35:32.018Z,101497.27
2019-05-23T15:38:00.449Z,101494.84
2019-05-23T15:40:29.017Z,101490.97
2019-05-23T15:42:57.451Z,101489.47
2019-05-23T15:45:26.362Z,101480.17
2019-05-23T15:47:54.935Z,101479.91
2019-05-23T15:50:31.007Z,101482.77
2019-05-23T15:53:03.776Z,101480.89
2019-05-23T15:55:36.732Z,101484.89
2019-05-23T15:58:06.901Z,101472.42
2019-05-23T16:00:48.232Z,101473.92
2019-05-23T16:03:34.904Z,101470.81
2019-05-23T16:06:04.965Z,101469.42
2019-05-23T16:08:33.427Z,101463.56
2019-05-23T16:11:02.147Z,101467.05
2019-05-23T16:13:31.050Z,101463.23
2019-05-23T16:15:59.566Z,101452.59
2019-05-23T16:18:28.084Z,101451.27
2019-05-23T16:20:58.201Z,101448.53
2019-05-23T16:23:26.649Z,101444.97
2019-05-23T16:25:55.366Z,101445.05
2019-05-23T16:28:23.831Z,101439.78
2019-05-23T16:30:52.219Z,101443.44
2019-05-23T16:33:20.663Z,101436.87
2019-05-23T16:35:49.154Z,101434.06
2019-05-23T16:38:17.596Z,101431.77
2019-05-23T16:40:46.018Z,101424.72
2019-05-23T16:43:14.453Z,101435.50
2019-05-23T16:45:43.313Z,101425.38
2019-05-23T16:48:11.732Z,101427.13
2019-05-23T16:50:40.157Z,101440.91
2019-05-23T16:53:08.584Z,101432.31
2019-05-23T16:55:38.716Z,101434.36
2019-05-23T16:58:08.163Z,101433.30
2019-05-23T17:00:54.325Z,101430.28
2019-05-23T17:03:33.611Z,101428.53
2019-05-23T17:06:18.741Z,101431.26
2019-05-23T17:08:48.956Z,101428.84
2019-05-23T17:11:19.655Z,101427.63
2019-05-23T17:13:49.740Z,101430.05
2019-05-23T17:16:28.841Z,101420.50
2019-05-23T17:19:08.114Z,101430.39
2019-05-23T17:21:53.375Z,101421.61
2019-05-23T17:24:32.158Z,101417.77
2019-05-23T17:27:14.107Z,101410.02
2019-05-23T17:29:44.175Z,101413.80
2019-05-23T17:32:14.282Z,101411.44
2019-05-23T17:34:42.732Z,101411.41
2019-05-23T17:37:12.888Z,101412.56
2019-05-23T17:39:42.296Z,101408.94
2019-05-23T17:42:10.749Z,101406.17
2019-05-23T17:44:39.181Z,101404.98
2019-05-23T17:47:07.658Z,101404.59
2019-05-23T17:49:37.518Z,101400.09
2019-05-23T17:52:06.432Z,101403.91
2019-05-23T17:54:35.414Z,101395.44
2019-05-23T17:57:03.839Z,101396.84
2019-05-23T17:59:32.301Z,101401.23
2019-05-23T18:02:01.474Z,101393.76
2019-05-23T18:04:30.171Z,101389.01
2019-05-23T18:06:58.607Z,101388.01
2019-05-23T18:09:27.585Z,101385.05
2019-05-23T18:11:56.162Z,101383.38
2019-05-23T18:14:25.028Z,101386.41
2019-05-23T18:16:53.517Z,101295.42
2019-05-23T18:19:21.957Z,101376.22
2019-05-23T18:21:51.099Z,101374.22
2019-05-23T18:24:20.042Z,101371.14
2019-05-23T18:26:48.701Z,101371.58
2019-05-23T18:29:17.629Z,101369.94
2019-05-23T18:31:47.864Z,101368.26
2019-05-23T18:34:15.559Z,101367.30
2019-05-23T18:36:43.941Z,101360.60
2019-05-23T18:39:14.219Z,101357.47
2019-05-23T18:41:42.630Z,101364.75
2019-05-23T18:44:11.316Z,101363.31
2019-05-23T18:46:44.052Z,101361.59
2019-05-23T18:49:12.529Z,101363.41
2019-05-23T18:51:40.942Z,101360.18
2019-05-23T18:54:10.491Z,101356.80
2019-05-23T18:56:39.073Z,101361.22
2019-05-23T18:59:08.119Z,101363.01
2019-05-23T19:01:36.625Z,101357.22
2019-05-23T19:04:05.757Z,101361.56
2019-05-23T19:06:34.918Z,101359.64
2019-05-23T19:09:07.075Z,101358.69
2019-05-23T19:11:35.485Z,101354.11
2019-05-23T19:14:04.301Z,101353.13
2019-05-23T19:16:33.360Z,101353.86
2019-05-23T19:19:02.327Z,101364.71
2019-05-23T19:21:31.189Z,101353.39
2019-05-23T19:23:59.685Z,101354.42
2019-05-23T19:26:28.459Z,101359.34
2019-05-23T19:28:57.053Z,101354.09
2019-05-23T19:31:26.062Z,101355.75
2019-05-23T19:33:54.622Z,101364.01
2019-05-23T19:36:24.089Z,101358.34
2019-05-23T19:38:52.604Z,101362.16
2019-05-23T19:41:36.360Z,101366.16
2019-05-23T19:43:50.700Z,101366.08
2019-05-23T19:46:19.427Z,101358.47
2019-05-23T19:48:48.544Z,101364.67
2019-05-23T19:51:17.995Z,101364.41
2019-05-23T19:53:47.062Z,101362.41
2019-05-23T19:56:15.555Z,101359.27
2019-05-23T19:58:44.081Z,101353.23
2019-05-23T20:01:12.751Z,101355.47
2019-05-23T20:03:41.269Z,101354.16
2019-05-23T20:06:10.433Z,101349.94
2019-05-23T20:08:39.212Z,101353.16
2019-05-23T20:11:08.072Z,101347.62
2019-05-23T20:13:36.515Z,101343.42
2019-05-23T20:16:05.532Z,101352.96
2019-05-23T20:18:34.106Z,101348.59
2019-05-23T20:21:03.128Z,101345.06
2019-05-23T20:23:31.605Z,101340.66
2019-05-23T20:26:00.036Z,101348.90
2019-05-23T20:28:29.203Z,101343.81
2019-05-23T20:30:58.239Z,101351.53
2019-05-23T20:33:27.338Z,101348.81
2019-05-23T20:35:55.769Z,101348.98
2019-05-23T20:38:25.142Z,101351.13
2019-05-23T20:40:53.923Z,101344.38
2019-05-23T20:43:22.366Z,101345.34
2019-05-23T20:45:50.863Z,101338.89
2019-05-23T20:48:19.479Z,101338.52
2019-05-23T20:50:47.978Z,101335.64
2019-05-23T20:53:16.758Z,101344.19
2019-05-23T20:55:45.284Z,101339.97
2019-05-23T20:58:13.742Z,101336.59
2019-05-23T21:00:56.337Z,101341.47
2019-05-23T21:03:25.820Z,101336.25
2019-05-23T21:05:54.604Z,101339.88
2019-05-23T21:08:23.046Z,101342.75
2019-05-23T21:10:51.747Z,101330.46
2019-05-23T21:13:20.183Z,101327.59
2019-05-23T21:15:48.938Z,101331.59
2019-05-23T21:18:17.453Z,101329.40
2019-05-23T21:20:45.953Z,101329.73
2019-05-23T21:23:14.607Z,101319.34
2019-05-23T21:25:44.663Z,101320.37
2019-05-23T21:28:12.355Z,101326.43
2019-05-23T21:30:40.789Z,101323.86
2019-05-23T21:33:09.554Z,101325.30
2019-05-23T21:35:38.049Z,101338.47
2019-05-23T21:38:06.468Z,101335.77
2019-05-23T21:40:37.943Z,101337.34
2019-05-23T21:43:06.378Z,101342.73
2019-05-23T21:45:34.938Z,101342.61
2019-05-23T21:48:03.748Z,101344.01
2019-05-23T21:50:32.574Z,101346.04
2019-05-23T21:53:01.018Z,101344.34
2019-05-23T21:55:37.831Z,101345.53
2019-05-23T21:58:07.412Z,101348.39
2019-05-23T22:01:07.762Z,101346.48
2019-05-23T22:03:53.507Z,101343.61
2019-05-23T22:06:34.661Z,101345.08
2019-05-23T22:09:04.775Z,101329.05
2019-05-23T22:11:33.196Z,101341.09
2019-05-23T22:14:01.626Z,101338.41
2019-05-23T22:16:30.416Z,101336.46
2019-05-23T22:18:59.196Z,101336.92
2019-05-23T22:21:27.636Z,101340.07
2019-05-23T22:23:56.053Z,101341.33
2019-05-23T22:26:24.551Z,101341.11
2019-05-23T22:28:53.040Z,101336.19
2019-05-23T22:31:22.224Z,101339.63
2019-05-23T22:33:58.455Z,101327.80
2019-05-23T22:36:26.869Z,101327.20
2019-05-23T22:38:55.293Z,101330.00
2019-05-23T22:41:23.710Z,101329.39
2019-05-23T22:43:52.160Z,101330.84
2019-05-23T22:46:22.311Z,101329.72
2019-05-23T22:48:50.747Z,101325.09
2019-05-23T22:51:19.165Z,101323.89
2019-05-23T22:53:47.604Z,101319.41
2019-05-23T22:56:16.036Z,101319.83
2019-05-23T22:58:45.126Z,101316.95
2019-05-23T23:01:14.459Z,101316.69
2019-05-23T23:03:42.869Z,101320.63
2019-05-23T23:06:11.679Z,101324.59
2019-05-23T23:08:40.308Z,101319.98
2019-05-23T23:11:10.672Z,101327.12
2019-05-23T23:13:39.478Z,101328.20
2019-05-23T23:16:09.003Z,101330.00
2019-05-23T23:18:37.431Z,101332.27
2019-05-23T23:21:05.854Z,101331.06
2019-05-23T23:23:34.274Z,101327.62
2019-05-23T23:26:02.731Z,101319.94
2019-05-23T23:28:31.190Z,101323.08
2019-05-23T23:30:59.595Z,101327.41
2019-05-23T23:33:28.021Z,101326.36
2019-05-23T23:35:56.466Z,101324.52
2019-05-23T23:38:24.946Z,101322.77
2019-05-23T23:40:53.356Z,101318.89
2019-05-23T23:43:21.800Z,101318.02
2019-05-23T23:46:07.782Z,101318.65
2019-05-23T23:48:53.827Z,101311.18
2019-05-23T23:51:40.684Z,101313.44
2019-05-23T23:54:27.413Z,101313.61
2019-05-23T23:57:14.126Z,101311.17
2019-05-23T23:59:41.825Z,101309.55
